Wetterstation Vordersexau
Wetterdaten: Woche 01.08.11 - 07.08.11 (KW31)
Datum Zeit Temp. A. Feuchte A. Luftdruck Regen Wind Richtung Taupunkt Windchill Windben
01.08.2011 00:00 11,3 C 84 % 1014,7 hPa 0,0 l/m 0,0 km/h NO 8,7 C 11,3 C 0,0 km/h
01.08.2011 01:00 11,7 C 85 % 1014,4 hPa 0,0 l/m 0,0 km/h NO 9,3 C 11,7 C 0,0 km/h
01.08.2011 02:00 11,1 C 85 % 1014,2 hPa 0,0 l/m 0,0 km/h NO 8,7 C 11,1 C 0,0 km/h
01.08.2011 03:00 9,5 C 85 % 1014,0 hPa 0,0 l/m 0,0 km/h NO 7,1 C 9,5 C 0,0 km/h
01.08.2011 04:00 8,6 C 86 % 1014,0 hPa 0,0 l/m 0,0 km/h NO 6,4 C 8,6 C 0,0 km/h
01.08.2011 05:00 8,8 C 85 % 1013,9 hPa 0,0 l/m 0,0 km/h NO 6,4 C 8,8 C 0,0 km/h
01.08.2011 06:00 10,4 C 84 % 1014,1 hPa 0,0 l/m 0,0 km/h SO 7,8 C 10,4 C 0,0 km/h
01.08.2011 07:00 12,0 C 83 % 1014,0 hPa 0,0 l/m 0,0 km/h NO 9,2 C 12,0 C 0,0 km/h
01.08.2011 08:00 18,4 C 76 % 1014,1 hPa 0,0 l/m 0,0 km/h W 14,1 C 18,4 C 0,0 km/h
01.08.2011 09:00 22,2 C 61 % 1014,0 hPa 0,0 l/m 0,0 km/h SW 14,3 C 22,2 C 0,0 km/h
01.08.2011 10:00 23,9 C 55 % 1014,0 hPa 0,0 l/m 6,5 km/h W 14,3 C 23,9 C 3,6 km/h
01.08.2011 11:00 25,1 C 54 % 1013,7 hPa 0,0 l/m 1,9 km/h N-NO 15,1 C 25,1 C 1,1 km/h
01.08.2011 12:00 24,7 C 57 % 1013,2 hPa 0,0 l/m 24,0 km/h NW 15,6 C 21,8 C 13,3 km/h
01.08.2011 13:00 25,8 C 55 % 1013,0 hPa 0,0 l/m 0,0 km/h NW 16,1 C 25,8 C 0,0 km/h
01.08.2011 14:00 27,2 C 50 % 1012,7 hPa 0,0 l/m 4,5 km/h NW 15,9 C 27,2 C 2,5 km/h
01.08.2011 15:00 29,5 C 46 % 1012,3 hPa 0,0 l/m 16,2 km/h W-NW 16,6 C 28,7 C 9,0 km/h
01.08.2011 16:00 30,5 C 44 % 1012,0 hPa 0,0 l/m 0,0 km/h NW 16,8 C 30,5 C 0,0 km/h
01.08.2011 17:00 32,3 C 40 % 1012,0 hPa 0,0 l/m 12,3 km/h N-NW 16,9 C 32,2 C 6,8 km/h
01.08.2011 18:00 31,2 C 41 % 1011,7 hPa 0,0 l/m 0,0 km/h N-NO 16,4 C 31,2 C 0,0 km/h
01.08.2011 19:00 27,5 C 48 % 1012,0 hPa 0,0 l/m 0,0 km/h N-NO 15,5 C 27,5 C 0,0 km/h
01.08.2011 20:00 21,9 C 62 % 1012,3 hPa 0,0 l/m 0,0 km/h NO 14,3 C 21,9 C 0,0 km/h
01.08.2011 21:00 18,4 C 75 % 1012,6 hPa 0,0 l/m 0,0 km/h NO 13,9 C 18,4 C 0,0 km/h
01.08.2011 22:00 17,1 C 80 % 1013,1 hPa 0,0 l/m 0,0 km/h NO 13,6 C 17,1 C 0,0 km/h
01.08.2011 23:00 16,5 C 83 % 1013,5 hPa 0,0 l/m 0,0 km/h NO 13,6 C 16,5 C 0,0 km/h
02.08.2011 00:00 14,7 C 84 % 1013,5 hPa 0,0 l/m 0,0 km/h NO 12,0 C 14,7 C 0,0 km/h
02.08.2011 01:00 13,8 C 85 % 1013,7 hPa 0,0 l/m 0,0 km/h NO 11,3 C 13,8 C 0,0 km/h
02.08.2011 02:00 13,3 C 85 % 1013,8 hPa 0,0 l/m 0,0 km/h O-NO 10,8 C 13,3 C 0,0 km/h
02.08.2011 03:00 13,2 C 85 % 1013,8 hPa 0,0 l/m 0,0 km/h O-NO 10,7 C 13,2 C 0,0 km/h
02.08.2011 04:00 12,3 C 85 % 1013,6 hPa 0,0 l/m 0,0 km/h NO 9,9 C 12,3 C 0,0 km/h
02.08.2011 05:00 11,6 C 85 % 1013,5 hPa 0,0 l/m 0,0 km/h NO 9,2 C 11,6 C 0,0 km/h
02.08.2011 06:00 10,9 C 85 % 1013,9 hPa 0,0 l/m 0,0 km/h O-NO 8,5 C 10,9 C 0,0 km/h
02.08.2011 07:00 12,8 C 84 % 1013,9 hPa 0,0 l/m 0,0 km/h SO 10,2 C 12,8 C 0,0 km/h
02.08.2011 08:00 23,9 C 67 % 1014,0 hPa 0,0 l/m 0,0 km/h O 17,4 C 23,9 C 0,0 km/h
02.08.2011 09:00 27,8 C 52 % 1014,1 hPa 0,0 l/m 0,0 km/h N-NO 17,0 C 27,8 C 0,0 km/h
02.08.2011 10:00 28,3 C 49 % 1014,3 hPa 0,0 l/m 0,0 km/h W-SW 16,5 C 28,3 C 0,0 km/h
02.08.2011 11:00 29,1 C 47 % 1014,8 hPa 0,0 l/m 19,4 km/h W-SW 16,6 C 28,0 C 10,8 km/h
02.08.2011 12:00 28,4 C 51 % 1014,4 hPa 0,0 l/m 0,0 km/h W-SW 17,3 C 28,4 C 0,0 km/h
02.08.2011 13:00 29,9 C 46 % 1014,4 hPa 0,0 l/m 0,0 km/h W-SW 17,0 C 29,9 C 0,0 km/h
02.08.2011 14:00 30,9 C 41 % 1014,0 hPa 0,0 l/m 0,0 km/h W-SW 16,1 C 30,9 C 0,0 km/h
02.08.2011 15:00 33,9 C 33 % 1013,6 hPa 0,0 l/m 3,9 km/h NW 15,3 C 33,9 C 2,2 km/h
02.08.2011 16:00 36,4 C 30 % 1013,2 hPa 0,0 l/m 0,0 km/h N-NO 16,0 C 36,4 C 0,0 km/h
02.08.2011 17:00 39,4 C 25 % 1012,6 hPa 0,0 l/m 0,0 km/h N-NO 15,7 C 39,4 C 0,0 km/h
02.08.2011 18:00 37,9 C 25 % 1012,3 hPa 0,0 l/m 0,0 km/h N-NO 14,4 C 37,9 C 0,0 km/h
02.08.2011 19:00 33,1 C 32 % 1012,1 hPa 0,0 l/m 0,0 km/h NO 14,2 C 33,1 C 0,0 km/h
02.08.2011 20:00 24,6 C 55 % 1012,2 hPa 0,0 l/m 0,0 km/h SO 14,9 C 24,6 C 0,0 km/h
02.08.2011 21:00 20,8 C 64 % 1012,8 hPa 0,0 l/m 0,0 km/h O-SO 13,7 C 20,8 C 0,0 km/h
02.08.2011 22:00 18,8 C 71 % 1012,7 hPa 0,0 l/m 0,0 km/h NO 13,4 C 18,8 C 0,0 km/h
02.08.2011 23:00 18,3 C 73 % 1012,6 hPa 0,0 l/m 0,0 km/h NO 13,4 C 18,3 C 0,0 km/h
03.08.2011 00:00 17,4 C 75 % 1013,0 hPa 0,0 l/m 0,0 km/h NO 12,9 C 17,4 C 0,0 km/h
03.08.2011 01:00 16,1 C 79 % 1013,5 hPa 0,0 l/m 0,0 km/h NO 12,5 C 16,1 C 0,0 km/h
03.08.2011 02:00 16,2 C 80 % 1013,3 hPa 0,0 l/m 0,0 km/h O-NO 12,7 C 16,2 C 0,0 km/h
03.08.2011 03:00 15,5 C 81 % 1013,1 hPa 0,0 l/m 0,0 km/h N-NO 12,3 C 15,5 C 0,0 km/h
03.08.2011 04:00 15,3 C 82 % 1014,2 hPa 0,0 l/m 0,0 km/h SO 12,2 C 15,3 C 0,0 km/h
03.08.2011 05:00 15,2 C 84 % 1014,0 hPa 0,0 l/m 0,0 km/h SO 12,5 C 15,2 C 0,0 km/h
03.08.2011 06:00 15,8 C 83 % 1014,1 hPa 0,0 l/m 0,0 km/h NO 12,9 C 15,8 C 0,0 km/h
03.08.2011 07:00 18,1 C 79 % 1014,1 hPa 0,0 l/m 0,0 km/h NO 14,4 C 18,1 C 0,0 km/h
03.08.2011 08:00 21,1 C 74 % 1014,2 hPa 0,0 l/m 0,0 km/h SO 16,3 C 21,1 C 0,0 km/h
03.08.2011 09:00 23,9 C 71 % 1014,5 hPa 0,0 l/m 2,6 km/h W 18,3 C 23,9 C 1,4 km/h
03.08.2011 10:00 28,1 C 51 % 1014,4 hPa 0,0 l/m 0,0 km/h W-NW 17,0 C 28,1 C 0,0 km/h
03.08.2011 11:00 29,1 C 47 % 1014,7 hPa 0,0 l/m 5,8 km/h W-SW 16,6 C 29,1 C 3,2 km/h
03.08.2011 12:00 28,9 C 47 % 1014,8 hPa 0,0 l/m 19,4 km/h NW 16,4 C 27,7 C 10,8 km/h
03.08.2011 13:00 27,7 C 45 % 1014,9 hPa 0,0 l/m 22,7 km/h S-SW 14,7 C 26,0 C 12,6 km/h
03.08.2011 14:00 27,3 C 47 % 1014,9 hPa 0,0 l/m 13,6 km/h S-SW 15,0 C 26,2 C 7,6 km/h
03.08.2011 15:00 24,2 C 55 % 1014,8 hPa 0,0 l/m 0,0 km/h W-SW 14,6 C 24,2 C 0,0 km/h
03.08.2011 16:00 23,1 C 59 % 1014,7 hPa 0,0 l/m 0,0 km/h S 14,6 C 23,1 C 0,0 km/h
03.08.2011 17:00 23,3 C 61 % 1014,7 hPa 0,0 l/m 16,8 km/h S-SW 15,3 C 20,9 C 9,4 km/h
03.08.2011 18:00 23,9 C 59 % 1014,3 hPa 0,0 l/m 0,0 km/h W-SW 15,4 C 23,9 C 0,0 km/h
03.08.2011 19:00 22,6 C 65 % 1014,8 hPa 0,0 l/m 0,0 km/h W-SW 15,7 C 22,6 C 0,0 km/h
03.08.2011 20:00 21,2 C 71 % 1014,8 hPa 0,0 l/m 0,0 km/h S-SO 15,7 C 21,2 C 0,0 km/h
03.08.2011 21:00 20,6 C 76 % 1015,3 hPa 0,0 l/m 13,0 km/h W-SW 16,2 C 18,5 C 7,2 km/h
03.08.2011 22:00 20,2 C 78 % 1015,7 hPa 0,0 l/m 3,2 km/h W-SW 16,2 C 20,2 C 1,8 km/h
03.08.2011 23:00 19,8 C 81 % 1015,9 hPa 0,0 l/m 2,6 km/h S 16,4 C 19,8 C 1,4 km/h
04.08.2011 00:00 19,2 C 82 % 1015,9 hPa 0,0 l/m 6,5 km/h S 16,0 C 19,2 C 3,6 km/h
04.08.2011 01:00 19,0 C 83 % 1016,1 hPa 0,0 l/m 0,0 km/h N-NO 16,0 C 19,0 C 0,0 km/h
04.08.2011 02:00 18,8 C 84 % 1016,0 hPa 0,0 l/m 0,0 km/h W-SW 16,0 C 18,8 C 0,0 km/h
04.08.2011 03:00 18,8 C 84 % 1016,0 hPa 0,0 l/m 0,0 km/h N-NO 16,0 C 18,8 C 0,0 km/h
04.08.2011 04:00 18,8 C 84 % 1015,8 hPa 0,0 l/m 0,0 km/h O-NO 16,0 C 18,8 C 0,0 km/h
04.08.2011 05:00 18,3 C 84 % 1016,1 hPa 0,0 l/m 0,0 km/h NO 15,5 C 18,3 C 0,0 km/h
04.08.2011 06:00 17,6 C 84 % 1016,0 hPa 0,0 l/m 0,0 km/h O-NO 14,9 C 17,6 C 0,0 km/h
04.08.2011 07:00 18,6 C 84 % 1016,2 hPa 0,0 l/m 0,0 km/h O-NO 15,8 C 18,6 C 0,0 km/h
04.08.2011 08:00 21,9 C 81 % 1016,1 hPa 0,0 l/m 0,0 km/h N 18,5 C 21,9 C 0,0 km/h
04.08.2011 09:00 27,2 C 64 % 1016,2 hPa 0,0 l/m 0,0 km/h SW 19,8 C 27,2 C 0,0 km/h
04.08.2011 10:00 25,9 C 62 % 1015,8 hPa 0,0 l/m 4,5 km/h W-NW 18,0 C 25,9 C 2,5 km/h
04.08.2011 11:00 27,6 C 59 % 1015,5 hPa 0,0 l/m 0,0 km/h W-NW 18,8 C 27,6 C 0,0 km/h
04.08.2011 12:00 28,9 C 56 % 1015,1 hPa 0,0 l/m 0,0 km/h N-NW 19,2 C 28,9 C 0,0 km/h
04.08.2011 13:00 29,9 C 49 % 1014,8 hPa 0,0 l/m 2,6 km/h S 18,0 C 29,9 C 1,4 km/h
04.08.2011 14:00 30,3 C 47 % 1014,2 hPa 0,0 l/m 3,2 km/h S-SW 17,7 C 30,3 C 1,8 km/h
04.08.2011 15:00 33,3 C 40 % 1013,9 hPa 0,0 l/m 0,0 km/h W-NW 17,8 C 33,3 C 0,0 km/h
04.08.2011 16:00 35,0 C 36 % 1013,4 hPa 0,0 l/m 7,8 km/h W-SW 17,7 C 35,0 C 4,3 km/h
04.08.2011 17:00 27,8 C 49 % 1013,2 hPa 0,0 l/m 7,1 km/h W 16,1 C 27,7 C 4,0 km/h
04.08.2011 18:00 32,5 C 42 % 1013,0 hPa 0,0 l/m 0,0 km/h W-SW 17,9 C 32,5 C 0,0 km/h
04.08.2011 19:00 28,1 C 48 % 1012,9 hPa 0,0 l/m 0,0 km/h NW 16,0 C 28,1 C 0,0 km/h
04.08.2011 20:00 23,5 C 65 % 1013,0 hPa 0,0 l/m 0,0 km/h O-NO 16,5 C 23,5 C 0,0 km/h
04.08.2011 21:00 20,4 C 75 % 1013,2 hPa 0,0 l/m 0,0 km/h NO 15,8 C 20,4 C 0,0 km/h
04.08.2011 22:00 19,8 C 77 % 1013,3 hPa 0,0 l/m 0,0 km/h N-NO 15,6 C 19,8 C 0,0 km/h
04.08.2011 23:00 19,4 C 79 % 1013,4 hPa 0,0 l/m 0,0 km/h O-NO 15,7 C 19,4 C 0,0 km/h
05.08.2011 00:00 19,5 C 79 % 1013,6 hPa 0,0 l/m 0,0 km/h O-NO 15,8 C 19,5 C 0,0 km/h
05.08.2011 01:00 19,3 C 80 % 1013,4 hPa 0,0 l/m 0,0 km/h NO 15,8 C 19,3 C 0,0 km/h
05.08.2011 02:00 18,5 C 81 % 1013,2 hPa 0,0 l/m 0,0 km/h SO 15,2 C 18,5 C 0,0 km/h
05.08.2011 03:00 18,2 C 83 % 1013,5 hPa 0,0 l/m 0,0 km/h NO 15,3 C 18,2 C 0,0 km/h
05.08.2011 04:00 18,1 C 83 % 1013,4 hPa 0,0 l/m 0,0 km/h NO 15,2 C 18,1 C 0,0 km/h
05.08.2011 05:00 17,3 C 84 % 1013,5 hPa 0,0 l/m 0,0 km/h O-SO 14,6 C 17,3 C 0,0 km/h
05.08.2011 06:00 16,9 C 84 % 1013,4 hPa 0,0 l/m 0,0 km/h SO 14,2 C 16,9 C 0,0 km/h
05.08.2011 07:00 18,9 C 84 % 1013,4 hPa 0,0 l/m 0,0 km/h O-NO 16,1 C 18,9 C 0,0 km/h
05.08.2011 08:00 20,2 C 81 % 1013,7 hPa 0,0 l/m 0,0 km/h N-NO 16,8 C 20,2 C 0,0 km/h
05.08.2011 09:00 21,5 C 80 % 1013,7 hPa 0,0 l/m 0,0 km/h W-SW 17,9 C 21,5 C 0,0 km/h
05.08.2011 10:00 23,9 C 70 % 1013,9 hPa 0,0 l/m 0,0 km/h W-SW 18,1 C 23,9 C 0,0 km/h
05.08.2011 11:00 23,2 C 73 % 1013,7 hPa 0,0 l/m 8,4 km/h W 18,1 C 22,6 C 4,7 km/h
05.08.2011 12:00 21,1 C 81 % 1013,9 hPa 0,7 l/m 0,0 km/h N-NO 17,7 C 21,1 C 0,0 km/h
05.08.2011 13:00 26,4 C 70 % 1013,2 hPa 0,0 l/m 1,9 km/h W-SW 20,5 C 26,4 C 1,1 km/h
05.08.2011 14:00 29,6 C 58 % 1012,7 hPa 0,0 l/m 0,0 km/h W-SW 20,4 C 29,6 C 0,0 km/h
05.08.2011 15:00 30,9 C 52 % 1011,7 hPa 0,0 l/m 15,6 km/h NW 19,9 C 30,4 C 8,6 km/h
05.08.2011 16:00 33,3 C 45 % 1011,2 hPa 0,0 l/m 0,0 km/h NW 19,7 C 33,3 C 0,0 km/h
05.08.2011 17:00 30,2 C 47 % 1010,9 hPa 0,0 l/m 0,0 km/h S-SO 17,6 C 30,2 C 0,0 km/h
05.08.2011 18:00 21,0 C 78 % 1011,1 hPa 2,8 l/m 0,0 km/h S-SW 17,0 C 21,0 C 0,0 km/h
05.08.2011 19:00 21,5 C 83 % 1011,8 hPa 0,4 l/m 18,8 km/h NO 18,5 C 18,3 C 10,4 km/h
05.08.2011 20:00 18,6 C 83 % 1012,0 hPa 0,7 l/m 0,0 km/h S-SO 15,7 C 18,6 C 0,0 km/h
05.08.2011 21:00 18,1 C 84 % 1012,2 hPa 0,0 l/m 3,9 km/h SO 15,4 C 18,1 C 2,2 km/h
05.08.2011 22:00 17,6 C 83 % 1011,6 hPa 0,4 l/m 0,0 km/h O-NO 14,7 C 17,6 C 0,0 km/h
05.08.2011 23:00 17,3 C 83 % 1011,3 hPa 0,0 l/m 0,0 km/h O-SO 14,4 C 17,3 C 0,0 km/h
06.08.2011 00:00 16,6 C 83 % 1011,2 hPa 0,0 l/m 0,0 km/h O-NO 13,7 C 16,6 C 0,0 km/h
06.08.2011 01:00 16,3 C 82 % 1010,7 hPa 0,0 l/m 0,0 km/h O-SO 13,2 C 16,3 C 0,0 km/h
06.08.2011 02:00 15,8 C 82 % 1010,4 hPa 0,0 l/m 0,0 km/h SO 12,7 C 15,8 C 0,0 km/h
06.08.2011 03:00 15,4 C 82 % 1010,0 hPa 0,0 l/m 0,0 km/h SO 12,3 C 15,4 C 0,0 km/h
06.08.2011 04:00 15,3 C 81 % 1009,6 hPa 0,0 l/m 0,0 km/h O-SO 12,1 C 15,3 C 0,0 km/h
06.08.2011 05:00 15,1 C 80 % 1008,9 hPa 0,0 l/m 0,0 km/h O-SO 11,7 C 15,1 C 0,0 km/h
06.08.2011 06:00 14,8 C 80 % 1008,2 hPa 0,0 l/m 0,0 km/h NO 11,4 C 14,8 C 0,0 km/h
06.08.2011 07:00 15,7 C 79 % 1008,4 hPa 0,4 l/m 0,0 km/h S-SO 12,1 C 15,7 C 0,0 km/h
06.08.2011 08:00 24,6 C 78 % 1008,0 hPa 0,0 l/m 0,0 km/h N-NW 20,5 C 24,6 C 0,0 km/h
06.08.2011 09:00 28,4 C 60 % 1007,4 hPa 0,0 l/m 0,0 km/h W 19,9 C 28,4 C 0,0 km/h
06.08.2011 10:00 30,1 C 58 % 1006,7 hPa 0,0 l/m 0,0 km/h W-NW 20,9 C 30,1 C 0,0 km/h
06.08.2011 11:00 28,6 C 60 % 1006,6 hPa 0,0 l/m 0,0 km/h SW 20,1 C 28,6 C 0,0 km/h
06.08.2011 12:00 29,9 C 56 % 1006,0 hPa 0,0 l/m 0,0 km/h W-SW 20,1 C 29,9 C 0,0 km/h
06.08.2011 13:00 29,8 C 56 % 1005,2 hPa 0,0 l/m 13,6 km/h SW 20,1 C 29,2 C 7,6 km/h
06.08.2011 14:00 28,1 C 61 % 1005,1 hPa 0,0 l/m 0,0 km/h O-SO 19,9 C 28,1 C 0,0 km/h
06.08.2011 15:00 28,5 C 60 % 1004,3 hPa 0,0 l/m 0,0 km/h S 20,0 C 28,5 C 0,0 km/h
06.08.2011 16:00 25,8 C 66 % 1004,2 hPa 0,0 l/m 1,3 km/h S-SO 19,0 C 25,8 C 0,7 km/h
06.08.2011 17:00 26,3 C 63 % 1004,1 hPa 0,0 l/m 0,0 km/h SO 18,7 C 26,3 C 0,0 km/h
06.08.2011 18:00 23,9 C 71 % 1003,7 hPa 0,0 l/m 0,0 km/h W 18,3 C 23,9 C 0,0 km/h
06.08.2011 19:00 23,2 C 67 % 1003,9 hPa 0,0 l/m 13,0 km/h W-NW 16,7 C 21,5 C 7,2 km/h
06.08.2011 20:00 21,2 C 76 % 1004,1 hPa 0,0 l/m 0,0 km/h N-NO 16,8 C 21,2 C 0,0 km/h
06.08.2011 21:00 20,0 C 82 % 1003,8 hPa 0,0 l/m 1,3 km/h O-SO 16,8 C 20,0 C 0,7 km/h
06.08.2011 22:00 19,5 C 83 % 1003,0 hPa 0,0 l/m 13,0 km/h NO 16,5 C 17,2 C 7,2 km/h
06.08.2011 23:00 19,3 C 84 % 1002,3 hPa 0,0 l/m 0,0 km/h SO 16,5 C 19,3 C 0,0 km/h
07.08.2011 00:00 19,1 C 84 % 1004,0 hPa 0,0 l/m 0,0 km/h SO 16,3 C 19,1 C 0,0 km/h
07.08.2011 01:00 19,3 C 84 % 1003,0 hPa 0,4 l/m 2,6 km/h W-SW 16,5 C 19,3 C 1,4 km/h
07.08.2011 02:00 20,3 C 81 % 1003,8 hPa 0,0 l/m 20,1 km/h SW 16,9 C 16,6 C 11,2 km/h
07.08.2011 03:00 20,8 C 78 % 1003,5 hPa 0,0 l/m 38,2 km/h W-SW 16,8 C 15,1 C 21,2 km/h
07.08.2011 04:00 21,1 C 75 % 1003,7 hPa 0,0 l/m 26,6 km/h S 16,5 C 16,7 C 14,8 km/h
07.08.2011 05:00 17,1 C 81 % 1005,9 hPa 2,5 l/m 0,0 km/h O-SO 13,8 C 17,1 C 0,0 km/h
07.08.2011 06:00 15,6 C 84 % 1006,0 hPa 1,4 l/m 0,0 km/h W-SW 12,9 C 15,6 C 0,0 km/h
07.08.2011 07:00 15,9 C 83 % 1006,9 hPa 1,8 l/m 0,0 km/h W-NW 13,0 C 15,9 C 0,0 km/h
07.08.2011 08:00 16,3 C 82 % 1007,5 hPa 1,1 l/m 0,6 km/h W-NW 13,2 C 16,3 C 0,4 km/h
07.08.2011 09:00 16,2 C 83 % 1007,6 hPa 0,7 l/m 0,0 km/h N 13,3 C 16,2 C 0,0 km/h
07.08.2011 10:00 16,3 C 85 % 1008,2 hPa 0,7 l/m 0,0 km/h SW 13,8 C 16,3 C 0,0 km/h
07.08.2011 11:00 17,3 C 84 % 1008,8 hPa 0,0 l/m 0,0 km/h O-SO 14,6 C 17,3 C 0,0 km/h
07.08.2011 12:00 21,9 C 73 % 1008,4 hPa 0,0 l/m 2,6 km/h SO 16,8 C 21,9 C 1,4 km/h
07.08.2011 13:00 21,4 C 75 % 1008,6 hPa 0,0 l/m 9,1 km/h O-SO 16,8 C 20,5 C 5,0 km/h
07.08.2011 14:00 21,6 C 71 % 1008,5 hPa 0,0 l/m 0,0 km/h S 16,1 C 21,6 C 0,0 km/h
07.08.2011 15:00 20,7 C 73 % 1008,4 hPa 0,0 l/m 1,3 km/h S 15,7 C 20,7 C 0,7 km/h
07.08.2011 16:00 19,9 C 77 % 1008,5 hPa 0,0 l/m 3,2 km/h S-SW 15,7 C 19,9 C 1,8 km/h
07.08.2011 17:00 19,3 C 78 % 1008,2 hPa 0,0 l/m 1,9 km/h S 15,4 C 19,3 C 1,1 km/h
07.08.2011 18:00 18,6 C 79 % 1008,1 hPa 0,0 l/m 0,0 km/h S 14,9 C 18,6 C 0,0 km/h
07.08.2011 19:00 18,1 C 78 % 1008,0 hPa 0,0 l/m 0,0 km/h S-SW 14,2 C 18,1 C 0,0 km/h
07.08.2011 20:00 18,2 C 76 % 1008,1 hPa 0,0 l/m 3,9 km/h S 13,9 C 18,2 C 2,2 km/h
07.08.2011 21:00 15,3 C 82 % 1008,1 hPa 0,0 l/m 1,3 km/h SO 12,2 C 15,3 C 0,7 km/h
07.08.2011 22:00 13,9 C 84 % 1008,1 hPa 0,0 l/m 0,0 km/h NO 11,2 C 13,9 C 0,0 km/h
07.08.2011 23:00 12,7 C 85 % 1007,9 hPa 0,0 l/m 0,0 km/h O-NO 10,2 C 12,7 C 0,0 km/h
Min-Datum _ 01.08.11 02.08.11 06.08.11 - 01.08.11 - 01.08.11 01.08.11 01.08.11
_ Min-Zeit 04:30 17:30 23:30 - 00:30 - 04:30 04:30 00:30
Minimum _ 8,6 C 25 % 1002,3 hPa - 0,0 km/h - 6,4 C 8,6 C 0,0 km/h
Max-Datum _ 02.08.11 01.08.11 04.08.11 05.08.11 07.08.11 - 06.08.11 02.08.11 07.08.11
_ Max-Zeit 17:30 04:30 07:30 18:30 03:30 - 10:30 17:30 03:30
Maximum _ 39,4 C 86 % 1016,2 hPa 2,8 l/m 38,2 km/h
W-SW
- 20,9 C 39,4 C 21,2 km/h
W-SW
Durchschnitt _ 21,6 C 70 % 1011,8 hPa #13,9 l/m 2,5 km/h NO 15,2 C 21,4 C 1,4 km/h
www.sexauwetter.de